Saturday, April 19, 2014, 11:10 PM EDT
Back to Local

KPTW, Pottstown Limerick Airport

Location: Royersford, PA, United States Lat: 40.233
Local Time: 11:10 PM EDT ( 3:10 GMT) Lon: -75.55
Time Zone: US/Eastern Elev: 291 ft

Show me the last for .
Show Decoded

2014-04-19 20:54 METAR KPTW 200054Z AUTO 01007KT 10SM CLR 14/M06 A3031 RMK AO2 SLP260 T01391056 =
2014-04-19 19:54 METAR KPTW 192354Z AUTO 36006KT 10SM CLR 14/M06 A3028 RMK AO2 SLP253 T01441056
                 10178 20144 51008 =
2014-04-19 18:54 METAR KPTW 192254Z AUTO 01005KT 10SM CLR 17/M05 A3027 RMK AO2 SLP248 T01671050 =
2014-04-19 17:54 METAR KPTW 192154Z AUTO 02009KT 10SM CLR 17/M04 A3027 RMK AO2 SLP248 T01721044 =
2014-04-19 16:54 METAR KPTW 192054Z AUTO 35010G15KT 10SM CLR 18/M02 A3026 RMK AO2 SLP244
                 T01781022 56004 =
2014-04-19 15:54 METAR KPTW 191954Z AUTO 34003KT 10SM CLR 18/M03 A3026 RMK AO2 SLP245 T01781033 =
2014-04-19 14:54 METAR KPTW 191854Z AUTO VRB04KT 10SM CLR 17/M04 A3027 RMK AO2 SLP247 T01721044 =
2014-04-19 13:54 METAR KPTW 191754Z AUTO 35013G19KT 330V040 10SM CLR 17/M05 A3027 RMK AO2 SLP248
                 T01721050 10178 20078 56014 =
2014-04-19 12:54 METAR KPTW 191654Z AUTO 34012G21KT 10SM CLR 17/M02 A3027 RMK AO2 SLP250
                 T01721017 =
2014-04-19 11:54 METAR KPTW 191554Z AUTO 36012G18KT 10SM CLR 15/M01 A3030 RMK AO2 SLP259
                 T01501006 =
2014-04-19 10:54 METAR KPTW 191454Z AUTO 36008KT 10SM CLR 14/01 A3031 RMK AO2 SLP263 T01440011
                 51007 =
2014-04-19 09:54 METAR KPTW 191354Z AUTO 36011KT 10SM CLR 13/01 A3031 RMK AO2 SLP261 T01280011 =
2014-04-19 08:54 METAR KPTW 191254Z AUTO 34007KT 10SM CLR 12/03 A3030 RMK AO2 SLP258 T01170033 =
2014-04-19 07:54 METAR KPTW 191154Z AUTO 00000KT 10SM CLR 08/03 A3029 RMK AO2 SLP256 T00780028
                 10078 20022 53013 =
2014-04-19 06:54 METAR KPTW 191054Z AUTO 00000KT 10SM CLR 04/01 A3027 RMK AO2 SLP249 T00390011 =
2014-04-19 05:54 METAR KPTW 190954Z AUTO 00000KT 10SM CLR 03/01 A3025 RMK AO2 SLP243 T00280006 =
2014-04-19 04:54 METAR KPTW 190854Z AUTO 00000KT 10SM CLR 03/01 A3025 RMK AO2 SLP244 T00330006
                 56005 =
2014-04-19 03:54 METAR KPTW 190754Z AUTO 00000KT 10SM CLR 04/01 A3026 RMK AO2 SLP245 T00440011 =
2014-04-19 02:54 METAR KPTW 190654Z AUTO 33003KT 10SM CLR 05/01 A3026 RMK AO2 SLP247 T00500006 =
2014-04-19 01:54 METAR KPTW 190554Z AUTO 00000KT 10SM CLR 05/01 A3027 RMK AO2 SLP249 T00500011
                 10100 20050 56007 =
2014-04-19 00:54 METAR KPTW 190454Z AUTO 00000KT 10SM CLR 07/01 A3028 RMK AO2 SLP252 T00720006
                 401170017 =
2014-04-18 23:54 METAR KPTW 190354Z AUTO 00000KT 10SM CLR 07/01 A3028 RMK AO2 SLP253 T00670006 =

Support USWX by starting your Amazon purchase here.